createdAt,value
2019-01-26T00:01:35.849Z,100340.38
2019-01-26T00:06:00.065Z,100362.81
2019-01-26T00:10:45.578Z,100354.14
2019-01-26T00:14:50.786Z,100354.27
2019-01-26T00:18:55.867Z,100357.31
2019-01-26T00:23:00.976Z,100355.89
2019-01-26T00:27:25.117Z,100346.59
2019-01-26T00:31:30.211Z,100330.41
2019-01-26T00:35:35.290Z,100324.45
2019-01-26T00:39:40.382Z,100337.66
2019-01-26T00:43:45.474Z,100327.28
2019-01-26T00:47:50.636Z,100327.28
2019-01-26T00:51:55.691Z,100323.16
2019-01-26T01:00:30.042Z,100335.76
2019-01-26T01:04:35.121Z,100326.80
2019-01-26T01:08:40.215Z,100335.19
2019-01-26T01:12:45.379Z,100339.83
2019-01-26T01:17:09.560Z,100316.80
2019-01-26T01:21:14.706Z,100302.33
2019-01-26T01:25:19.834Z,100305.27
2019-01-26T01:29:24.919Z,100297.05
2019-01-26T01:33:49.173Z,100301.42
2019-01-26T01:37:54.229Z,100306.42
2019-01-26T01:41:59.317Z,100308.22
2019-01-26T01:46:04.726Z,100313.69
2019-01-26T01:50:10.220Z,100297.56
2019-01-26T01:54:15.204Z,100304.24
2019-01-26T01:58:20.234Z,100289.67
2019-01-26T02:02:25.617Z,100280.86
2019-01-26T02:06:30.675Z,100281.20
2019-01-26T02:10:35.790Z,100276.09
2019-01-26T02:14:40.919Z,100279.10
2019-01-26T02:18:46.075Z,100272.91
2019-01-26T02:23:10.117Z,100262.58
2019-01-26T02:27:15.225Z,100267.55
2019-01-26T02:31:20.385Z,100266.63
2019-01-26T02:35:25.983Z,100267.48
2019-01-26T02:39:31.064Z,100260.83
2019-01-26T02:48:11.712Z,100247.02
2019-01-26T02:52:35.887Z,100236.30
2019-01-26T02:56:40.967Z,100244.73
2019-01-26T03:00:46.093Z,100235.78
2019-01-26T03:04:51.153Z,100240.42
2019-01-26T03:08:56.283Z,100244.11
2019-01-26T03:13:13.484Z,100251.81
2019-01-26T03:17:18.646Z,100239.34
2019-01-26T03:21:23.697Z,100254.76
2019-01-26T03:25:28.774Z,100245.61
2019-01-26T03:38:19.715Z,100244.89
2019-01-26T03:42:24.844Z,100238.09
2019-01-26T03:46:49.007Z,100232.82
2019-01-26T03:59:48.922Z,100228.77
2019-01-26T04:04:05.690Z,100233.80
2019-01-26T04:08:10.822Z,100219.34
2019-01-26T04:12:15.869Z,100219.95
2019-01-26T04:20:56.733Z,100216.81
2019-01-26T04:25:01.825Z,100220.53
2019-01-26T04:29:06.870Z,100215.57
2019-01-26T04:33:26.158Z,100215.09
2019-01-26T04:37:37.796Z,100214.06
2019-01-26T04:41:43.233Z,100222.76
2019-01-26T04:45:48.618Z,100225.23
2019-01-26T04:49:53.721Z,100220.25
2019-01-26T04:53:58.888Z,100220.47
2019-01-26T04:58:03.980Z,100216.41
2019-01-26T05:02:28.178Z,100212.02
2019-01-26T05:06:34.660Z,100216.16
2019-01-26T05:10:39.861Z,100201.62
2019-01-26T05:14:44.966Z,100202.55
2019-01-26T05:18:50.230Z,100217.78
2019-01-26T05:32:19.310Z,100186.36
2019-01-26T05:36:24.396Z,100181.48
2019-01-26T05:40:29.515Z,100174.62
2019-01-26T05:44:34.696Z,100182.39
2019-01-26T05:48:39.751Z,100171.19
2019-01-26T05:52:44.852Z,100182.44
2019-01-26T05:56:50.353Z,100184.59
2019-01-26T06:01:14.428Z,100170.41
2019-01-26T06:05:19.562Z,100202.12
2019-01-26T06:09:35.982Z,100173.27
2019-01-26T06:13:41.082Z,100162.97
2019-01-26T06:17:46.612Z,100166.66
2019-01-26T06:22:03.324Z,100154.02
2019-01-26T06:26:08.392Z,100146.34
2019-01-26T06:30:15.954Z,100137.15
2019-01-26T06:34:32.569Z,100148.78
2019-01-26T06:38:37.607Z,100153.73
2019-01-26T06:42:42.748Z,100149.81
2019-01-26T06:47:06.841Z,100147.20
2019-01-26T06:51:11.929Z,100158.03
2019-01-26T06:55:16.989Z,100157.28
2019-01-26T06:59:22.045Z,100146.73
2019-01-26T07:03:46.242Z,100161.94
2019-01-26T07:07:51.313Z,100155.66
2019-01-26T07:12:15.599Z,100163.70
2019-01-26T07:20:56.082Z,100142.63
2019-01-26T07:25:02.834Z,100152.85
2019-01-26T07:29:07.911Z,100153.11
2019-01-26T07:33:13.022Z,100149.48
2019-01-26T07:37:37.114Z,100156.02
2019-01-26T07:41:42.256Z,100160.25
2019-01-26T07:45:47.347Z,100157.34
2019-01-26T07:54:28.202Z,100167.02
2019-01-26T07:58:33.279Z,100161.94
2019-01-26T08:02:38.393Z,100162.71
2019-01-26T08:06:43.459Z,100158.55
2019-01-26T08:10:48.749Z,100158.22
2019-01-26T08:19:18.096Z,100160.45
2019-01-26T08:23:23.303Z,100176.60
2019-01-26T08:27:28.424Z,100160.56
2019-01-26T08:31:33.928Z,100169.86
2019-01-26T08:35:39.053Z,100150.31
2019-01-26T08:40:03.274Z,100142.54
2019-01-26T08:44:08.495Z,100145.54
2019-01-26T08:48:13.704Z,100149.61
2019-01-26T08:52:18.768Z,100153.77
2019-01-26T08:56:43.134Z,100145.61
2019-01-26T09:00:48.160Z,100150.17
2019-01-26T09:14:01.766Z,100128.00
2019-01-26T09:18:19.065Z,100128.17
2019-01-26T09:22:43.137Z,100152.31
2019-01-26T09:26:48.235Z,100153.02
2019-01-26T09:30:53.405Z,100148.48
2019-01-26T09:34:58.531Z,100168.88
2019-01-26T09:39:22.774Z,100135.95
2019-01-26T09:43:39.788Z,100128.64
2019-01-26T09:48:24.450Z,100121.45
2019-01-26T09:52:29.573Z,100124.01
2019-01-26T09:56:34.642Z,100140.87
2019-01-26T10:00:39.705Z,100142.03
2019-01-26T10:04:44.801Z,100145.54
2019-01-26T10:08:49.953Z,100152.44
2019-01-26T10:13:06.318Z,100135.45
2019-01-26T10:17:11.450Z,100137.23
2019-01-26T10:21:16.510Z,100122.97
2019-01-26T10:29:38.262Z,100128.66
2019-01-26T10:33:43.321Z,100122.34
2019-01-26T10:37:48.446Z,100121.95
2019-01-26T10:42:31.521Z,100111.87
2019-01-26T10:46:36.585Z,100125.34
2019-01-26T10:50:41.732Z,100124.49
2019-01-26T10:54:46.821Z,100110.77
2019-01-26T10:58:51.949Z,100112.55
2019-01-26T11:02:57.127Z,100116.85
2019-01-26T11:07:21.302Z,100116.85
2019-01-26T11:11:26.336Z,100097.53
2019-01-26T11:20:07.245Z,100077.48
2019-01-26T11:24:31.353Z,100072.17
2019-01-26T11:28:55.555Z,100073.14
2019-01-26T11:33:00.977Z,100062.28
2019-01-26T11:41:54.684Z,100051.33
2019-01-26T11:46:18.730Z,100031.20
2019-01-26T11:55:19.267Z,100009.55
2019-01-26T11:59:24.501Z,100014.45
2019-01-26T12:03:34.857Z,99995.52
2019-01-26T12:08:00.001Z,99987.92
2019-01-26T12:12:43.186Z,99981.71
2019-01-26T12:16:48.349Z,99979.95
2019-01-26T12:20:54.177Z,99972.55
2019-01-26T12:24:59.273Z,99963.72
2019-01-26T12:29:04.382Z,99952.01
2019-01-26T12:33:09.522Z,99950.61
2019-01-26T12:37:26.387Z,99933.80
2019-01-26T12:41:50.545Z,99933.80
2019-01-26T12:45:55.620Z,99926.61
2019-01-26T12:50:02.338Z,99911.28
2019-01-26T12:54:32.155Z,99917.47
2019-01-26T12:58:37.705Z,99920.42
2019-01-26T13:02:42.759Z,99910.53
2019-01-26T13:06:59.455Z,99891.52
2019-01-26T13:16:13.816Z,99881.12
2019-01-26T13:20:48.321Z,99866.02
2019-01-26T13:24:53.637Z,99877.83
2019-01-26T13:28:58.788Z,99854.86
2019-01-26T13:33:03.903Z,99849.95
2019-01-26T13:37:09.062Z,99840.77
2019-01-26T13:41:33.188Z,99831.95
2019-01-26T13:45:38.434Z,99831.59
2019-01-26T13:50:09.854Z,99825.48
2019-01-26T13:54:14.954Z,99833.95
2019-01-26T13:58:20.022Z,99819.14
2019-01-26T14:02:30.313Z,99812.95
2019-01-26T14:06:54.515Z,99813.99
2019-01-26T14:10:59.598Z,99806.19
2019-01-26T14:15:05.059Z,99789.33
2019-01-26T14:19:10.169Z,99786.99
2019-01-26T14:23:15.340Z,99771.81
2019-01-26T14:27:39.518Z,99777.70
2019-01-26T14:31:44.700Z,99753.29
2019-01-26T14:35:49.855Z,99756.70
2019-01-26T14:39:54.975Z,99756.61
2019-01-26T14:44:00.031Z,99750.25
2019-01-26T14:48:05.197Z,99754.27
2019-01-26T14:52:10.410Z,99741.49
2019-01-26T14:56:15.476Z,99735.02
2019-01-26T15:00:23.221Z,99732.44
2019-01-26T15:04:40.127Z,99728.69
2019-01-26T15:08:45.204Z,99721.72
2019-01-26T15:12:50.640Z,99712.36
2019-01-26T15:16:55.719Z,99701.41
2019-01-26T15:21:00.834Z,99701.13
2019-01-26T15:25:06.890Z,99684.98
2019-01-26T15:29:31.037Z,99679.45
2019-01-26T15:37:53.501Z,99665.23
2019-01-26T15:41:58.609Z,99650.82
2019-01-26T15:46:03.796Z,99640.98
2019-01-26T15:50:13.143Z,99652.68
2019-01-26T15:54:16.937Z,99639.02
2019-01-26T15:58:22.050Z,99615.06
2019-01-26T16:02:27.138Z,99615.06
2019-01-26T16:06:32.244Z,99617.69
2019-01-26T16:10:37.345Z,99615.34
2019-01-26T16:14:42.409Z,99613.19
2019-01-26T16:18:47.519Z,99596.11
2019-01-26T16:22:52.586Z,99602.00
2019-01-26T16:26:57.659Z,99593.58
2019-01-26T16:31:02.873Z,99592.10
2019-01-26T16:35:10.320Z,99590.88
2019-01-26T16:39:15.412Z,99585.06
2019-01-26T16:43:20.551Z,99574.70
2019-01-26T16:47:25.778Z,99564.97
2019-01-26T16:51:31.217Z,99558.05
2019-01-26T16:55:36.241Z,99562.91
2019-01-26T16:59:41.337Z,99551.78
2019-01-26T17:03:46.526Z,99540.73
2019-01-26T17:07:51.591Z,99530.36
2019-01-26T17:11:56.711Z,99533.34
2019-01-26T17:16:01.791Z,99518.66
2019-01-26T17:20:10.750Z,99509.03
2019-01-26T17:24:15.923Z,99500.11
2019-01-26T17:28:21.106Z,99496.50
2019-01-26T17:32:26.267Z,99491.80
2019-01-26T17:36:31.348Z,99487.11
2019-01-26T17:40:36.364Z,99473.73
2019-01-26T17:44:41.527Z,99466.55
2019-01-26T17:48:46.707Z,99463.08
2019-01-26T17:52:51.870Z,99452.70
2019-01-26T17:56:57.294Z,99444.75
2019-01-26T18:01:02.750Z,99436.71
2019-01-26T18:05:09.386Z,99436.71
2019-01-26T18:09:14.505Z,99433.25
2019-01-26T18:13:19.777Z,99425.02
2019-01-26T18:17:24.903Z,99417.73
2019-01-26T18:21:29.994Z,99401.18
2019-01-26T18:25:37.236Z,99397.94
2019-01-26T18:33:59.272Z,99377.16
2019-01-26T18:38:04.620Z,99372.67
2019-01-26T18:42:09.720Z,99361.87
2019-01-26T18:46:14.738Z,99353.59
2019-01-26T18:50:30.623Z,99341.61
2019-01-26T18:54:35.715Z,99343.44
2019-01-26T18:58:40.906Z,99334.72
2019-01-26T19:02:46.713Z,99311.31
2019-01-26T19:06:51.765Z,99305.91
2019-01-26T19:10:56.928Z,99301.31
2019-01-26T19:15:02.097Z,99290.93
2019-01-26T19:19:07.219Z,99294.09
2019-01-26T19:23:12.400Z,99289.59
2019-01-26T19:27:17.563Z,99286.03
2019-01-26T19:31:22.688Z,99281.09
2019-01-26T19:35:27.756Z,99270.89
2019-01-26T19:39:32.997Z,99270.89
2019-01-26T19:43:38.104Z,99260.61
2019-01-26T19:47:43.122Z,99248.41
2019-01-26T19:51:48.383Z,99248.78
2019-01-26T19:55:53.474Z,99239.71
2019-01-26T19:59:58.543Z,99227.55
2019-01-26T20:08:19.993Z,99207.84
2019-01-26T20:12:44.184Z,99189.03
2019-01-26T20:16:49.325Z,99182.55
2019-01-26T20:20:54.481Z,99172.01
2019-01-26T20:24:59.758Z,99142.30
2019-01-26T20:33:41.946Z,99136.43
2019-01-26T20:37:58.498Z,99122.77
2019-01-26T20:42:03.634Z,99122.77
2019-01-26T20:46:08.770Z,99115.42
2019-01-26T20:50:14.265Z,99112.53
2019-01-26T20:54:19.324Z,99081.64
2019-01-26T20:58:24.340Z,99088.06
2019-01-26T21:02:29.422Z,99073.50
2019-01-26T21:06:34.479Z,99066.95
2019-01-26T21:10:39.689Z,99047.61
2019-01-26T21:14:44.930Z,99046.09
2019-01-26T21:18:50.161Z,99028.60
2019-01-26T21:22:55.192Z,99010.72
2019-01-26T21:27:00.252Z,99004.72
2019-01-26T21:31:05.683Z,99002.50
2019-01-26T21:35:10.806Z,98992.13
2019-01-26T21:39:15.903Z,98994.50
2019-01-26T21:43:21.015Z,98979.46
2019-01-26T21:47:26.141Z,98962.80
2019-01-26T21:51:31.205Z,98959.23
2019-01-26T21:55:37.248Z,98957.84
2019-01-26T21:59:42.393Z,98949.41
2019-01-26T22:03:47.422Z,98949.26
2019-01-26T22:07:52.646Z,98931.75
2019-01-26T22:11:57.713Z,98917.34
2019-01-26T22:16:02.779Z,98913.80
2019-01-26T22:20:10.231Z,98908.38
2019-01-26T22:24:15.551Z,98899.25
2019-01-26T22:28:20.680Z,98893.03
2019-01-26T22:32:25.808Z,98873.90
2019-01-26T22:36:30.856Z,98873.90
2019-01-26T22:40:37.085Z,98863.23
2019-01-26T22:44:42.155Z,98852.80
2019-01-26T22:48:47.541Z,98848.88
2019-01-26T22:52:52.768Z,98824.06
2019-01-26T22:56:58.858Z,98816.09
2019-01-26T23:01:13.480Z,98803.88
2019-01-26T23:05:29.402Z,98778.59
2019-01-26T23:09:56.852Z,98779.59
2019-01-26T23:14:15.952Z,98764.18
2019-01-26T23:19:00.737Z,98739.52
2019-01-26T23:23:28.636Z,98736.84
2019-01-26T23:27:58.442Z,98735.53
2019-01-26T23:32:03.557Z,98720.46
2019-01-26T23:36:08.781Z,98706.08
2019-01-26T23:40:14.112Z,98704.63
2019-01-26T23:44:19.285Z,98691.80
2019-01-26T23:48:24.428Z,98682.76
2019-01-26T23:52:48.629Z,98678.04
2019-01-26T23:56:53.742Z,98663.88
